Flight Track Log - Related Links

Times and Time Zones

All times are in EDT time to prevent confusion due to time zone crossing. See the OPT471 flight status page for this flight to view local times or setup timezone preferences in your user account.

Time Position Orientation Groundspeed Altitude Reporting Facility
EDT Latitude Longitude Course Direction KTS MPH feet Rate Location/Type
Fri 10:23:58 AM 38.1000 -78.4833 278° West 186 214 4,000  Level Potomac TRACON
Fri 10:24:47 AM 38.1056 -78.5447 277° West 213 245 6,700 2,916 Climbing Washington Center
Fri 10:25:45 AM 38.1206 -78.6139 285° West 235 270 9,200 2,644 Climbing Washington Center
Fri 10:26:45 AM 38.1372 -78.7017 284° West 245 282 11,900 1,884 Climbing Washington Center
Fri 10:27:46 AM 38.1558 -78.7869 286° West 250 288 13,000 541 Climbing Washington Center
Fri 10:28:47 AM 38.1722 -78.8747 283° West 250 288 13,000 1,433 Level Washington Center
Fri 10:29:00 AM 38.2690 -79.1543 278° West  Level FlightAware Approximate
Fri 10:30:46 AM 38.2067 -79.0561 284° West 250 288 17,300  Level Washington Center
Fri 10:31:46 AM 38.2250 -79.1414 285° West 255 293 19,200 1,835 Climbing Washington Center
Fri 10:32:47 AM 38.2433 -79.2269 285° West 262 302 21,000 1,800 Climbing Washington Center
Fri 10:33:46 AM 38.2633 -79.3231 285° West 272 313 22,800 1,412 Climbing Washington Center
Fri 10:34:46 AM 38.2811 -79.4244 283° West 284 327 23,800 1,500 Climbing Washington Center
Fri 10:35:46 AM 38.3047 -79.5317 286° West 289 333 25,800 1,785 Climbing Washington Center
Fri 10:36:47 AM 38.3264 -79.6333 285° West 289 333 27,400 1,613 Climbing Washington Center
Fri 10:37:45 AM 38.3436 -79.7375 282° West 294 338 29,000 1,525 Climbing Washington Center
Fri 10:38:45 AM 38.3608 -79.8417 282° West 299 344 30,400 1,303 Climbing Washington Center
Fri 10:41:03 AM 38.4403 -80.0475 296° West 296 341 33,300 1,230 Climbing Indianapolis Center
Fri 10:42:05 AM 38.4567 -80.1486 282° West 299 344 34,500 1,113 Climbing Indianapolis Center
Fri 10:43:07 AM 38.4753 -80.2497 283° West 301 346 35,600 1,210 Climbing Indianapolis Center
Fri 10:44:09 AM 38.4947 -80.3692 282° West 296 341 37,000 1,452 Climbing Indianapolis Center
Fri 10:45:11 AM 38.5106 -80.4647 282° West 276 318 38,600 1,306 Climbing Indianapolis Center
Fri 10:46:13 AM 38.5244 -80.5542 281° West 258 297 39,700 677 Climbing Indianapolis Center
Fri 10:47:15 AM 38.5389 -80.6417 282° West 253 291 40,000 146 Climbing Indianapolis Center
Fri 10:48:16 AM 38.5542 -80.7347 282° West 267 307 40,000  Level Indianapolis Center
Fri 10:49:18 AM 38.5875 -80.8269 295° West 282 325 40,000  Level Indianapolis Center
Fri 10:50:20 AM 38.6278 -80.9428 294° West 298 343 40,000  Level Indianapolis Center
Fri 10:51:22 AM 38.6622 -81.0422 294° West 305 351 40,000  Level Indianapolis Center
Fri 10:52:24 AM 38.6978 -81.1422 295° West 308 354 40,000  Level Indianapolis Center
Fri 10:53:26 AM 38.7328 -81.2417 294° West 307 353 40,000  Level Indianapolis Center
Fri 10:54:27 AM 38.7681 -81.3411 294° West 308 354 40,000  Level Indianapolis Center
Fri 10:55:29 AM 38.8064 -81.4569 293° West 308 354 40,000  Level Indianapolis Center
Fri 10:56:31 AM 38.8425 -81.5611 294° West 312 359 40,000  Level Indianapolis Center
Fri 10:57:33 AM 38.8761 -81.6614 293° West 310 357 40,000  Level Indianapolis Center
Fri 10:58:35 AM 38.9114 -81.7608 295° West 308 354 40,000  Level Indianapolis Center
Fri 10:59:36 AM 38.9450 -81.8619 293° West 309 356 40,000  Level Indianapolis Center
Fri 11:00:38 AM 38.9794 -81.9625 294° West 309 356 40,000  Level Indianapolis Center
Fri 11:01:40 AM 39.0136 -82.0644 293° West 311 358 40,000 194 Level Indianapolis Center
Fri 11:02:42 AM 39.0533 -82.1844 293° West 306 352 40,400 488 Climbing Indianapolis Center
Fri 11:03:43 AM 39.0861 -82.2822 293° West 299 344 41,000 293 Climbing Indianapolis Center
Fri 11:04:45 AM 39.1194 -82.3825 293° West 302 348 41,000 -194 Level Indianapolis Center
Fri 11:06:49 AM 39.1872 -82.5883 293° West 309 356 40,400 -355 Descending Indianapolis Center
Fri 11:07:51 AM 39.2200 -82.6853 294° West 295 339 39,900 -195 Descending Indianapolis Center
Fri 11:08:52 AM 39.2519 -82.7828 293° West 292 336 40,000 49 Climbing Indianapolis Center
Fri 11:09:54 AM 39.2850 -82.8831 293° West 299 344 40,000  Level Indianapolis Center
Fri 11:10:56 AM 39.3228 -83.0006 293° West 301 346 40,000  Level Indianapolis Center
Fri 11:11:58 AM 39.3558 -83.1022 293° West 304 350 40,000  Level Indianapolis Center
Fri 11:12:59 AM 39.3886 -83.2053 292° West 305 351 40,000  Level Indianapolis Center
Fri 11:14:01 AM 39.4217 -83.3086 293° West 308 354 40,000  Level Indianapolis Center
Fri 11:15:03 AM 39.4561 -83.4106 294° West 306 352 40,000  Level Indianapolis Center
Fri 11:16:04 AM 39.4881 -83.5136 292° West 304 350 40,000  Level Indianapolis Center
Fri 11:17:06 AM 39.5214 -83.6178 293° West 306 352 40,000  Level Indianapolis Center
Fri 11:18:08 AM 39.5556 -83.7211 293° West 307 353 40,000  Level Indianapolis Center
Fri 11:19:09 AM 39.5881 -83.8247 292° West 306 352 40,000  Level Indianapolis Center
Fri 11:20:11 AM 39.6211 -83.9278 293° West 305 351 40,000  Level Indianapolis Center
Fri 11:21:13 AM 39.6536 -84.0317 292° West 307 353 40,000  Level Indianapolis Center
Fri 11:22:15 AM 39.6853 -84.1339 292° West 304 350 40,000  Level Indianapolis Center
Fri 11:23:16 AM 39.7186 -84.2389 292° West 308 354 40,000  Level Indianapolis Center
Fri 11:24:18 AM 39.7558 -84.3611 292° West 309 356 40,000  Level Indianapolis Center
Fri 11:25:20 AM 39.7897 -84.4661 293° West 310 357 40,000  Level Indianapolis Center
Fri 11:26:21 AM 39.8222 -84.5719 292° West 312 359 40,000  Level Indianapolis Center
Fri 11:27:23 AM 39.8542 -84.6792 291° West 315 362 40,000  Level Indianapolis Center
Fri 11:28:25 AM 39.8872 -84.7856 292° West 314 361 40,000  Level Indianapolis Center
Fri 11:29:26 AM 39.9228 -84.8989 292° West 318 366 40,000  Level Indianapolis Center
Fri 11:30:28 AM 39.9542 -85.0056 291° West 317 365 40,000  Level Indianapolis Center
Fri 11:31:30 AM 39.9864 -85.1128 291° West 318 366 40,000  Level Indianapolis Center
Fri 11:32:31 AM 40.0192 -85.2214 292° West 322 371 40,000  Level Indianapolis Center
Fri 11:33:33 AM 40.0525 -85.3283 292° West 321 369 40,000  Level Indianapolis Center
Fri 11:34:35 AM 40.0844 -85.4367 291° West 322 371 40,000  Level Indianapolis Center
Fri 11:35:36 AM 40.1225 -85.5656 291° West 320 368 40,000  Level Indianapolis Center
Fri 11:36:14 AM 40.1408 -85.6297 291° West 323 372 40,000  Level Chicago Center
Fri 11:37:16 AM 40.1744 -85.7383 292° West 324 373 40,000  Level Chicago Center
Fri 11:38:18 AM 40.2067 -85.8475 291° West 325 374 40,000  Level Chicago Center
Fri 11:39:20 AM 40.2392 -85.9578 291° West 327 376 40,000  Level Chicago Center
Fri 11:40:22 AM 40.2772 -86.0917 290° West 329 379 40,000  Level Chicago Center
Fri 11:41:24 AM 40.3108 -86.2025 292° West 330 380 40,000  Level Chicago Center
Fri 11:42:26 AM 40.3417 -86.3144 290° West 330 380 40,000  Level Chicago Center
Fri 11:43:28 AM 40.3744 -86.4261 291° West 330 380 40,000  Level Chicago Center
Fri 11:44:30 AM 40.4069 -86.5392 291° West 333 383 40,000  Level Chicago Center
Fri 11:45:32 AM 40.4447 -86.6756 290° West 332 382 40,000  Level Chicago Center
Fri 11:46:34 AM 40.4806 -86.7903 292° West 341 392 40,000  Level Chicago Center
Fri 11:47:36 AM 40.5372 -86.8961 305° West 356 410 40,000  Level Chicago Center
Fri 11:48:37 AM 40.5919 -87.0044 304° West 359 413 40,000  Level Chicago Center
Fri 11:49:39 AM 40.6494 -87.1147 305° West 362 417 40,000  Level Chicago Center
Fri 11:50:41 AM 40.7058 -87.2247 304° West 363 418 40,000  Level Chicago Center
Fri 11:51:43 AM 40.7742 -87.3583 304° West 369 425 40,000  Level Chicago Center
Fri 11:52:45 AM 40.8308 -87.4697 304° West 368 423 40,000  Level Chicago Center
Fri 11:53:47 AM 40.8886 -87.5825 304° West 373 429 40,000  Level Chicago Center
Fri 11:54:49 AM 40.9458 -87.6942 304° West 369 425 40,000  Level Chicago Center
Fri 11:55:51 AM 41.0036 -87.8075 304° West 373 429 40,000  Level Chicago Center
Fri 11:56:53 AM 41.0603 -87.9206 304° West 369 425 40,000  Level Chicago Center
Fri 11:57:55 AM 41.1286 -88.0569 304° West 370 426 40,000  Level Chicago Center
Fri 11:58:57 AM 41.1847 -88.1714 303° West 368 423 40,000  Level Chicago Center
Fri 11:59:59 AM 41.2425 -88.2861 304° West 370 426 40,000  Level Chicago Center
Fri 12:01:01 PM 41.2994 -88.4022 303° West 372 428 40,000  Level Chicago Center
Fri 12:02:03 PM 41.3567 -88.5158 304° West 370 426 40,000  Level Chicago Center
Fri 12:03:05 PM 41.4131 -88.6297 303° West 369 425 40,000  Level Chicago Center
Fri 12:04:06 PM 41.4694 -88.7461 303° West 372 428 40,000  Level Chicago Center
Fri 12:05:08 PM 41.5378 -88.8850 303° West 375 432 40,000  Level Chicago Center
Fri 12:06:10 PM 41.5944 -89.0011 303° West 375 432 40,000  Level Chicago Center
Fri 12:07:12 PM 41.6525 -89.1206 303° West 384 442 40,000  Level Chicago Center
Fri 12:08:14 PM 41.7092 -89.2383 303° West 379 436 40,000  Level Chicago Center
Fri 12:09:16 PM 41.7664 -89.3575 303° West 383 441 40,000  Level Chicago Center
Fri 12:10:18 PM 41.8225 -89.4761 302° West 379 436 40,000  Level Chicago Center
Fri 12:11:20 PM 41.8914 -89.6197 303° West 381 438 40,000  Level Chicago Center
Fri 12:12:22 PM 41.9475 -89.7381 303° West 378 435 40,000  Level Chicago Center
Fri 12:13:24 PM 42.0050 -89.8583 303° West 383 441 40,000  Level Chicago Center
Fri 12:14:25 PM 42.0600 -89.9750 302° West 386 444 40,000  Level Chicago Center
Fri 12:15:27 PM 42.1169 -90.0956 303° West 387 445 40,000  Level Chicago Center
Fri 12:16:29 PM 42.1839 -90.2394 302° West 382 440 40,000  Level Chicago Center
Fri 12:17:31 PM 42.2408 -90.3617 302° West 390 449 40,000  Level Chicago Center
Fri 12:18:33 PM 42.2964 -90.4814 302° West 383 441 40,000  Level Chicago Center
Fri 12:19:35 PM 42.3533 -90.6014 303° West 384 442 40,000  Level Chicago Center
Fri 12:20:37 PM 42.4072 -90.7239 301° West 382 440 40,000  Level Chicago Center
Fri 12:21:39 PM 42.4417 -90.8572 289° West 377 434 40,000  Level Chicago Center
Fri 12:22:41 PM 42.4875 -91.0178 291° West 383 441 40,000  Level Chicago Center
Fri 12:23:42 PM 42.5239 -91.1522 290° West 383 441 40,000  Level Chicago Center
Fri 12:24:44 PM 42.5606 -91.2853 291° West 380 437 40,000  Level Chicago Center
Fri 12:25:46 PM 42.5972 -91.4203 290° West 383 441 40,000  Level Chicago Center
Fri 12:26:48 PM 42.6336 -91.5569 290° West 383 441 40,000  Level Chicago Center
Fri 12:27:50 PM 42.6711 -91.6950 290° West 382 440 40,000  Level Chicago Center
Fri 12:28:52 PM 42.7078 -91.8331 290° West 383 441 40,000  Level Chicago Center
Fri 12:30:02 PM 42.7508 -91.9953 290° West 379 436 40,000  Level Minneapolis Center
Fri 12:31:16 PM 42.7942 -92.1575 290° West 379 436 40,000  Level Minneapolis Center
Fri 12:32:18 PM 42.8367 -92.3214 290° West 385 443 40,000  Level Minneapolis Center
Fri 12:33:20 PM 42.8717 -92.4578 289° West 385 443 40,000  Level Minneapolis Center
Fri 12:34:34 PM 42.9067 -92.5919 290° West 382 440 40,000  Level Minneapolis Center
Fri 12:35:36 PM 42.9417 -92.7289 289° West 384 442 40,000  Level Minneapolis Center
Fri 12:36:39 PM 42.9842 -92.8947 289° West 390 449 40,000  Level Minneapolis Center
Fri 12:37:41 PM 43.0258 -93.0572 289° West 382 440 40,000  Level Minneapolis Center
Fri 12:38:43 PM 43.0597 -93.1956 289° West 385 443 40,000  Level Minneapolis Center
Fri 12:39:44 PM 43.0878 -93.3072 289° West 389 448 40,000  Level Minneapolis Center
Fri 12:40:46 PM 43.1153 -93.4486 285° West 388 447 40,000  Level Minneapolis Center
Fri 12:41:49 PM 43.1453 -93.6222 283° West 393 452 40,000  Level Minneapolis Center
Fri 12:42:51 PM 43.1758 -93.7944 284° West 390 449 40,000  Level Minneapolis Center
Fri 12:43:53 PM 43.1997 -93.9389 283° West 390 449 40,000  Level Minneapolis Center
Fri 12:44:55 PM 43.2250 -94.0839 284° West 394 453 40,000 -48 Level Minneapolis Center
Fri 12:45:57 PM 43.2492 -94.2278 283° West 392 451 39,900 -919 Descending Minneapolis Center
Fri 12:46:59 PM 43.2792 -94.4008 283° West 397 457 38,100 -1,887 Descending Minneapolis Center
Fri 12:48:01 PM 43.3036 -94.5464 283° West 392 451 36,000 -2,032 Descending Minneapolis Center
Fri 12:49:03 PM 43.3267 -94.6883 283° West 383 441 33,900 -2,081 Descending Minneapolis Center
Fri 12:50:05 PM 43.3494 -94.8333 282° West 387 445 31,700 -2,081 Descending Minneapolis Center
Fri 12:51:07 PM 43.3744 -94.9831 283° West 398 458 29,600 -2,129 Descending Minneapolis Center
Fri 12:52:09 PM 43.3992 -95.1344 283° West 406 467 27,300 -2,371 Descending Minneapolis Center
Fri 12:53:11 PM 43.4286 -95.3181 283° West 410 472 24,700 -2,274 Descending Minneapolis Center
Fri 12:54:13 PM 43.4522 -95.4686 282° West 405 466 22,600 -1,984 Descending Minneapolis Center
Fri 12:55:15 PM 43.4753 -95.6144 282° West 394 453 20,600 -2,081 Descending Minneapolis Center
Fri 12:56:17 PM 43.4978 -95.7594 282° West 388 447 18,300 -2,129 Descending Minneapolis Center
Fri 12:57:19 PM 43.5200 -95.9025 282° West 382 440 16,200 -1,984 Descending Minneapolis Center
Fri 12:58:21 PM 43.5367 -96.0119 282° West 372 428 14,200 -2,688 Descending Minneapolis Center
Fri 12:59:24 PM 43.5625 -96.1889 281° West 343 395 10,600 -2,640 Descending Minneapolis Center
Fri 01:00:26 PM 43.5781 -96.2928 282° West 312 359 8,700 -1,790 Descending Minneapolis Center
Fri 01:01:28 PM 43.5867 -96.3872 277° West 280 322 6,900 -1,500 Descending Minneapolis Center
Fri 01:02:30 PM 43.5747 -96.4789 260° West 256 295 5,600 -1,113 Descending Minneapolis Center
Fri 01:03:32 PM 43.5656 -96.5656 262° West 243 280 4,600 -1,113 Descending Minneapolis Center
Fri 01:04:34 PM 43.5558 -96.6422 260° West 225 259 3,300 -1,016 Descending Minneapolis Center
Fri 01:05:36 PM 43.5422 -96.7061 254° West 202 232 2,500 -726 Descending Minneapolis Center
Fri 01:06:38 PM 43.5658 -96.7311 323° Northwest 154 177 1,800 -677 Descending Minneapolis Center
Fri 01:08:00 PM 43.5667 -96.7333 270° West  Level FlightAware Approximate
Fri 01:15:00 PM 43.5820 -96.7419 270° West  Level Estimated

Login

Don't have an account? Register now (free) for customized features, flight alerts, and more!